createdAt,value
2019-01-02T00:02:32.157Z,4.74
2019-01-02T00:05:20.238Z,4.77
2019-01-02T00:08:08.318Z,4.76
2019-01-02T00:10:58.140Z,4.73
2019-01-02T00:13:47.906Z,4.69
2019-01-02T00:16:35.973Z,4.69
2019-01-02T00:19:24.077Z,4.68
2019-01-02T00:25:20.997Z,4.65
2019-01-02T00:28:10.762Z,4.64
2019-01-02T00:30:58.851Z,4.65
2019-01-02T00:36:54.057Z,4.61
2019-01-02T00:39:44.318Z,4.64
2019-01-02T00:42:32.354Z,4.64
2019-01-02T00:51:08.105Z,4.68
2019-01-02T00:53:56.148Z,4.68
2019-01-02T00:59:37.558Z,4.67
2019-01-02T01:02:25.639Z,4.68
2019-01-02T01:05:13.717Z,4.63
2019-01-02T01:08:03.414Z,4.64
2019-01-02T01:10:51.493Z,4.63
2019-01-02T01:13:39.859Z,4.62
2019-01-02T01:16:27.929Z,4.63
2019-01-02T01:19:17.655Z,4.65
2019-01-02T01:22:05.746Z,4.61
2019-01-02T01:24:53.781Z,4.61
2019-01-02T01:27:41.861Z,4.65
2019-01-02T01:30:31.618Z,4.64
2019-01-02T01:33:21.703Z,4.66
2019-01-02T01:36:09.813Z,4.65
2019-01-02T01:38:58.468Z,4.68
2019-01-02T01:41:46.562Z,4.69
2019-01-02T01:47:41.776Z,4.72
2019-01-02T01:50:31.534Z,4.70
2019-01-02T01:53:19.685Z,4.70
2019-01-02T01:56:07.947Z,4.68
2019-01-02T01:58:56.035Z,4.69
2019-01-02T02:01:44.121Z,4.68
2019-01-02T02:07:39.313Z,4.61
2019-01-02T02:10:12.407Z,4.67
2019-01-02T02:13:00.664Z,4.65
2019-01-02T02:15:48.698Z,4.61
2019-01-02T02:18:36.637Z,4.63
2019-01-02T02:24:31.879Z,4.63
2019-01-02T02:27:21.657Z,4.67
2019-01-02T02:29:50.712Z,4.68
2019-01-02T02:32:38.754Z,4.67
2019-01-02T02:35:28.856Z,4.68
2019-01-02T02:38:18.974Z,4.68
2019-01-02T02:41:08.833Z,4.67
2019-01-02T02:43:58.532Z,4.69
2019-01-02T02:46:48.366Z,4.69
2019-01-02T02:52:43.468Z,4.71
2019-01-02T02:55:14.953Z,4.73
2019-01-02T02:58:03.049Z,4.71
2019-01-02T03:00:51.090Z,4.73
2019-01-02T03:03:40.769Z,4.77
2019-01-02T03:06:29.018Z,4.74
2019-01-02T03:09:19.032Z,4.71
2019-01-02T03:15:01.074Z,4.73
2019-01-02T03:17:49.168Z,4.72
2019-01-02T03:20:37.180Z,4.72
2019-01-02T03:23:25.266Z,4.71
2019-01-02T03:26:13.321Z,4.68
2019-01-02T03:29:01.397Z,4.60
2019-01-02T03:34:58.307Z,4.58
2019-01-02T03:37:46.346Z,4.54
2019-01-02T03:40:34.422Z,4.49
2019-01-02T03:43:22.317Z,4.49
2019-01-02T03:46:10.410Z,4.47
2019-01-02T03:48:58.644Z,4.38
2019-01-02T03:51:46.717Z,4.38
2019-01-02T03:54:34.728Z,4.40
2019-01-02T03:57:22.794Z,4.40
2019-01-02T04:03:17.988Z,4.36
2019-01-02T04:06:06.037Z,4.39
2019-01-02T04:08:54.110Z,4.39
2019-01-02T04:11:42.185Z,4.38
2019-01-02T04:14:30.596Z,4.35
2019-01-02T04:17:18.673Z,4.32
2019-01-02T04:20:06.731Z,4.32
2019-01-02T04:22:54.810Z,4.26
2019-01-02T04:25:23.840Z,4.25
2019-01-02T04:28:15.183Z,4.27
2019-01-02T04:34:10.362Z,4.20
2019-01-02T04:36:58.510Z,4.17
2019-01-02T04:39:46.368Z,4.17
2019-01-02T04:42:34.314Z,4.14
2019-01-02T04:45:22.406Z,4.15
2019-01-02T04:48:10.431Z,4.15
2019-01-02T04:51:17.581Z,4.20
2019-01-02T04:57:12.740Z,4.20
2019-01-02T05:00:00.815Z,4.18
2019-01-02T05:05:55.918Z,4.14
2019-01-02T05:08:43.946Z,4.13
2019-01-02T05:11:32.018Z,4.15
2019-01-02T05:17:27.190Z,4.18
2019-01-02T05:20:15.571Z,4.18
2019-01-02T05:23:03.880Z,4.19
2019-01-02T05:25:51.908Z,4.19
2019-01-02T05:31:33.530Z,4.18
2019-01-02T05:34:21.925Z,4.16
2019-01-02T05:37:09.988Z,4.11
2019-01-02T05:39:58.056Z,4.08
2019-01-02T05:42:46.122Z,4.03
2019-01-02T05:45:34.084Z,4.00
2019-01-02T05:48:22.154Z,4.00
2019-01-02T05:51:10.181Z,3.99
2019-01-02T05:53:58.256Z,3.93
2019-01-02T05:59:53.472Z,3.93
2019-01-02T06:02:41.558Z,3.90
2019-01-02T06:05:29.624Z,3.86
2019-01-02T06:08:18.076Z,3.93
2019-01-02T06:11:06.155Z,3.88
2019-01-02T06:13:54.179Z,3.88
2019-01-02T06:16:42.882Z,3.82
2019-01-02T06:19:30.956Z,3.82
2019-01-02T06:22:18.847Z,3.82
2019-01-02T06:25:06.951Z,3.79
2019-01-02T06:27:55.023Z,3.76
2019-01-02T06:30:43.098Z,3.79
2019-01-02T06:33:30.982Z,3.78
2019-01-02T06:36:19.065Z,3.79
2019-01-02T06:39:07.138Z,3.80
2019-01-02T06:41:55.038Z,3.74
2019-01-02T06:44:43.072Z,3.71
2019-01-02T06:47:31.144Z,3.70
2019-01-02T06:50:39.596Z,3.71
2019-01-02T06:53:27.646Z,3.67
2019-01-02T06:56:15.682Z,3.69
2019-01-02T06:59:04.077Z,3.68
2019-01-02T07:01:52.174Z,3.68
2019-01-02T07:10:41.458Z,3.61
2019-01-02T07:13:29.492Z,3.56
2019-01-02T07:16:17.555Z,3.54
2019-01-02T07:19:05.584Z,3.54
2019-01-02T07:24:47.280Z,3.46
2019-01-02T07:27:35.360Z,3.45
2019-01-02T07:30:05.524Z,3.42
2019-01-02T07:32:53.598Z,3.39
2019-01-02T07:36:00.869Z,3.41
2019-01-02T07:39:10.977Z,3.40
2019-01-02T07:42:18.183Z,3.34
2019-01-02T07:45:25.310Z,3.34
2019-01-02T07:48:32.492Z,3.35
2019-01-02T07:51:39.634Z,3.30
2019-01-02T07:54:46.867Z,3.33
2019-01-02T07:57:53.993Z,3.34
2019-01-02T08:01:01.174Z,3.34
2019-01-02T08:04:08.379Z,3.30
2019-01-02T08:07:15.558Z,3.28
2019-01-02T08:10:22.691Z,3.29
2019-01-02T08:13:34.902Z,3.26
2019-01-02T08:16:42.047Z,3.30
2019-01-02T08:22:49.573Z,3.25
2019-01-02T08:25:56.757Z,3.23
2019-01-02T08:29:03.917Z,3.21
2019-01-02T08:32:11.105Z,3.17
2019-01-02T08:35:18.246Z,3.18
2019-01-02T08:38:25.458Z,3.21
2019-01-02T08:41:32.655Z,3.24
2019-01-02T08:44:39.822Z,3.23
2019-01-02T08:47:47.003Z,3.25
2019-01-02T08:50:58.472Z,3.33
2019-01-02T08:54:05.640Z,3.37
2019-01-02T08:57:12.815Z,3.38
2019-01-02T09:00:20.003Z,3.41
2019-01-02T09:03:27.137Z,3.45
2019-01-02T09:06:34.316Z,3.49
2019-01-02T09:09:41.553Z,3.49
2019-01-02T09:16:11.190Z,3.59
2019-01-02T09:19:26.525Z,3.62
2019-01-02T09:22:43.681Z,3.62
2019-01-02T09:25:50.949Z,3.69
2019-01-02T09:29:03.346Z,3.70
2019-01-02T09:32:10.534Z,3.73
2019-01-02T09:35:17.711Z,3.75
2019-01-02T09:38:12.365Z,3.80
2019-01-02T09:41:19.563Z,3.85
2019-01-02T09:44:26.762Z,3.86
2019-01-02T09:47:33.895Z,3.88
2019-01-02T09:50:41.079Z,3.96
2019-01-02T09:53:55.114Z,4.02
2019-01-02T09:56:50.568Z,4.00
2019-01-02T09:59:45.285Z,4.06
2019-01-02T10:03:03.511Z,4.05
2019-01-02T10:06:10.671Z,4.09
2019-01-02T10:09:17.864Z,4.15
2019-01-02T10:12:13.266Z,4.18
2019-01-02T10:15:20.411Z,4.27
2019-01-02T10:18:27.590Z,4.34
2019-01-02T10:21:34.759Z,4.44
2019-01-02T10:24:41.959Z,4.48
2019-01-02T10:27:49.137Z,4.52
2019-01-02T10:30:42.245Z,4.56
2019-01-02T10:33:35.461Z,4.61
2019-01-02T10:36:42.643Z,4.65
2019-01-02T10:39:49.777Z,4.70
2019-01-02T10:42:56.985Z,4.77
2019-01-02T10:46:04.123Z,4.84
2019-01-02T10:49:01.187Z,4.81
2019-01-02T10:52:08.327Z,4.96
2019-01-02T10:55:03.013Z,4.92
2019-01-02T10:58:10.241Z,4.96
2019-01-02T11:01:17.454Z,5.00
2019-01-02T11:04:24.586Z,4.97
2019-01-02T11:07:31.854Z,4.98
2019-01-02T11:10:39.056Z,5.09
2019-01-02T11:13:46.249Z,5.07
2019-01-02T11:16:53.489Z,5.04
2019-01-02T11:20:00.767Z,5.05
2019-01-02T11:22:56.494Z,5.18
2019-01-02T11:26:14.359Z,5.19
2019-01-02T11:29:26.107Z,5.17
2019-01-02T11:32:33.424Z,5.23
2019-01-02T11:38:47.739Z,5.17
2019-01-02T11:42:09.125Z,5.22
2019-01-02T11:45:16.257Z,5.17
2019-01-02T11:48:04.379Z,5.17
2019-01-02T11:50:33.419Z,5.21
2019-01-02T11:53:21.525Z,5.24
2019-01-02T11:56:09.594Z,5.23
2019-01-02T11:58:57.666Z,5.31
2019-01-02T12:01:45.812Z,5.20
2019-01-02T12:07:27.327Z,5.17
2019-01-02T12:09:56.389Z,5.23
2019-01-02T12:12:44.423Z,5.22
2019-01-02T12:15:13.535Z,5.23
2019-01-02T12:18:01.644Z,5.13
2019-01-02T12:20:49.759Z,5.12
2019-01-02T12:23:37.795Z,5.09
2019-01-02T12:26:25.731Z,5.12
2019-01-02T12:29:13.774Z,5.15
2019-01-02T12:34:55.747Z,5.19
2019-01-02T12:37:43.837Z,5.14
2019-01-02T12:40:31.972Z,5.09
2019-01-02T12:46:27.478Z,5.10
2019-01-02T12:52:22.710Z,5.16
2019-01-02T12:55:10.674Z,5.13
2019-01-02T12:57:58.746Z,5.16
2019-01-02T13:01:07.860Z,5.23
2019-01-02T13:04:15.038Z,5.20
2019-01-02T13:07:22.203Z,5.19
2019-01-02T13:10:29.399Z,5.12
2019-01-02T13:13:36.539Z,5.08
2019-01-02T13:16:36.785Z,5.07
2019-01-02T13:19:43.915Z,5.09
2019-01-02T13:22:51.092Z,5.05
2019-01-02T13:26:01.182Z,5.05
2019-01-02T13:29:08.368Z,5.00
2019-01-02T13:32:15.498Z,5.02
2019-01-02T13:35:22.677Z,4.99
2019-01-02T13:38:29.815Z,5.01
2019-01-02T13:41:36.997Z,4.99
2019-01-02T13:47:55.950Z,5.00
2019-01-02T13:51:03.752Z,4.95
2019-01-02T13:53:52.205Z,4.93
2019-01-02T13:56:41.515Z,4.90
2019-01-02T13:59:29.579Z,4.86
2019-01-02T14:02:38.043Z,4.83
2019-01-02T14:05:28.967Z,4.86
2019-01-02T14:16:37.185Z,4.73
2019-01-02T14:19:25.323Z,4.70
2019-01-02T14:22:14.460Z,4.68
2019-01-02T14:27:55.728Z,4.60
2019-01-02T14:33:18.646Z,4.52
2019-01-02T14:36:06.608Z,4.49
2019-01-02T14:38:54.711Z,4.46
2019-01-02T14:41:42.784Z,4.42
2019-01-02T14:44:30.939Z,4.36
2019-01-02T14:46:59.971Z,4.34
2019-01-02T14:49:48.047Z,4.31
2019-01-02T14:52:36.092Z,4.29
2019-01-02T14:55:24.134Z,4.25
2019-01-02T14:58:12.174Z,4.18
2019-01-02T15:01:00.508Z,4.17
2019-01-02T15:03:48.554Z,4.10
2019-01-02T15:06:36.679Z,4.04
2019-01-02T15:09:08.122Z,4.03
2019-01-02T15:11:56.212Z,4.00
2019-01-02T15:14:44.281Z,3.95
2019-01-02T15:17:32.376Z,3.90
2019-01-02T15:20:40.895Z,3.82
2019-01-02T15:23:28.798Z,3.79
2019-01-02T15:26:16.876Z,3.75
2019-01-02T15:29:04.767Z,3.73
2019-01-02T15:31:52.690Z,3.70
2019-01-02T15:34:40.720Z,3.65
2019-01-02T15:37:28.664Z,3.58
2019-01-02T15:40:16.555Z,3.53
2019-01-02T15:43:04.535Z,3.46
2019-01-02T15:45:52.489Z,3.46
2019-01-02T15:48:40.536Z,3.43
2019-01-02T15:51:28.606Z,3.38
2019-01-02T15:54:16.500Z,3.33
2019-01-02T15:57:04.588Z,3.26
2019-01-02T15:59:53.095Z,3.25
2019-01-02T16:02:41.120Z,3.20
2019-01-02T16:05:29.148Z,3.14
2019-01-02T16:08:17.052Z,3.11
2019-01-02T16:11:05.230Z,3.08
2019-01-02T16:13:53.125Z,3.07
2019-01-02T16:16:42.386Z,3.05
2019-01-02T16:19:30.851Z,3.03
2019-01-02T16:22:18.936Z,3.00
2019-01-02T16:24:47.877Z,2.98
2019-01-02T16:27:35.952Z,2.95
2019-01-02T16:30:44.419Z,2.94
2019-01-02T16:33:32.484Z,2.93
2019-01-02T16:36:20.546Z,2.96
2019-01-02T16:39:09.000Z,2.90
2019-01-02T16:41:56.967Z,2.88
2019-01-02T16:44:45.050Z,2.82
2019-01-02T16:47:33.091Z,2.80
2019-01-02T16:50:21.181Z,2.71
2019-01-02T16:53:09.219Z,2.65
2019-01-02T16:55:57.303Z,2.68
2019-01-02T16:58:45.336Z,2.63
2019-01-02T17:01:33.397Z,2.62
2019-01-02T17:07:28.886Z,2.57
2019-01-02T17:10:16.969Z,2.52
2019-01-02T17:13:05.072Z,2.50
2019-01-02T17:15:53.185Z,2.49
2019-01-02T17:18:55.201Z,2.50
2019-01-02T17:21:31.019Z,2.45
2019-01-02T17:24:19.159Z,2.42
2019-01-02T17:27:07.335Z,2.40
2019-01-02T17:30:15.959Z,2.39
2019-01-02T17:33:04.021Z,2.38
2019-01-02T17:35:52.367Z,2.37
2019-01-02T17:38:40.390Z,2.39
2019-01-02T17:41:28.539Z,2.34
2019-01-02T17:44:16.620Z,2.32
2019-01-02T17:47:04.714Z,2.31
2019-01-02T17:49:52.790Z,2.31
2019-01-02T17:52:40.821Z,2.29
2019-01-02T17:55:29.005Z,2.27
2019-01-02T17:58:17.165Z,2.29
2019-01-02T18:01:05.282Z,2.23
2019-01-02T18:07:00.489Z,2.26
2019-01-02T18:09:29.469Z,2.22
2019-01-02T18:12:17.581Z,2.20
2019-01-02T18:15:05.645Z,2.18
2019-01-02T18:17:53.761Z,2.15
2019-01-02T18:20:41.853Z,2.12
2019-01-02T18:23:10.995Z,2.12
2019-01-02T18:25:59.113Z,2.10
2019-01-02T18:28:47.271Z,2.10
2019-01-02T18:34:42.426Z,2.08
2019-01-02T18:37:30.507Z,2.02
2019-01-02T18:43:12.245Z,1.91
2019-01-02T18:46:00.316Z,1.84
2019-01-02T18:48:48.377Z,1.79
2019-01-02T18:51:36.440Z,1.71
2019-01-02T18:54:24.575Z,1.70
2019-01-02T18:57:12.706Z,1.63
2019-01-02T19:00:06.011Z,1.61
2019-01-02T19:02:50.617Z,1.55
2019-01-02T19:05:38.807Z,1.53
2019-01-02T19:11:34.038Z,1.54
2019-01-02T19:17:29.218Z,1.55
2019-01-02T19:20:17.321Z,1.54
2019-01-02T19:23:05.353Z,1.56
2019-01-02T19:25:53.442Z,1.52
2019-01-02T19:28:41.521Z,1.52
2019-01-02T19:31:29.605Z,1.50
2019-01-02T19:34:17.668Z,1.53
2019-01-02T19:37:05.753Z,1.54
2019-01-02T19:39:53.813Z,1.55
2019-01-02T19:42:41.894Z,1.55
2019-01-02T19:45:29.862Z,1.55
2019-01-02T19:48:17.968Z,1.57
2019-01-02T19:51:06.018Z,1.61
2019-01-02T19:53:54.119Z,1.63
2019-01-02T19:56:42.211Z,1.58
2019-01-02T19:59:30.258Z,1.57
2019-01-02T20:02:18.360Z,1.62
2019-01-02T20:05:06.409Z,1.62
2019-01-02T20:07:54.504Z,1.62
2019-01-02T20:13:54.178Z,1.58
2019-01-02T20:16:42.180Z,1.53
2019-01-02T20:19:30.266Z,1.51
2019-01-02T20:22:18.678Z,1.50
2019-01-02T20:25:06.753Z,1.47
2019-01-02T20:27:54.717Z,1.43
2019-01-02T20:30:42.730Z,1.44
2019-01-02T20:33:11.714Z,1.42
2019-01-02T20:35:59.804Z,1.43
2019-01-02T20:41:55.347Z,1.48
2019-01-02T20:44:43.497Z,1.50
2019-01-02T20:47:31.589Z,1.54
2019-01-02T20:50:19.661Z,1.56
2019-01-02T20:53:07.734Z,1.56
2019-01-02T20:55:55.814Z,1.58
2019-01-02T20:58:43.850Z,1.61
2019-01-02T21:01:31.923Z,1.57
2019-01-02T21:10:07.288Z,1.54
2019-01-02T21:12:55.367Z,1.55
2019-01-02T21:15:43.412Z,1.51
2019-01-02T21:18:38.773Z,1.47
2019-01-02T21:24:33.983Z,1.43
2019-01-02T21:27:22.068Z,1.36
2019-01-02T21:30:10.006Z,1.36
2019-01-02T21:32:58.374Z,1.31
2019-01-02T21:38:39.895Z,1.23
2019-01-02T21:41:27.985Z,1.24
2019-01-02T21:44:16.025Z,1.24
2019-01-02T21:47:04.120Z,1.24
2019-01-02T21:49:52.193Z,1.20
2019-01-02T21:52:40.278Z,1.18
2019-01-02T21:55:28.319Z,1.19
2019-01-02T21:58:16.330Z,1.23
2019-01-02T22:03:58.193Z,1.25
2019-01-02T22:06:46.304Z,1.20
2019-01-02T22:09:34.351Z,1.15
2019-01-02T22:12:22.434Z,1.16
2019-01-02T22:15:10.478Z,1.13
2019-01-02T22:17:58.573Z,1.12
2019-01-02T22:20:46.621Z,1.13
2019-01-02T22:23:34.598Z,1.14
2019-01-02T22:26:22.617Z,1.15
2019-01-02T22:29:10.719Z,1.10
2019-01-02T22:31:58.705Z,1.08
2019-01-02T22:34:46.724Z,1.07
2019-01-02T22:37:34.794Z,1.07
2019-01-02T22:40:22.904Z,1.04
2019-01-02T22:42:51.849Z,0.86
2019-01-02T22:45:39.966Z,0.60
2019-01-02T22:48:28.012Z,0.42
2019-01-02T22:51:16.102Z,0.22
2019-01-02T22:54:03.998Z,0.05
2019-01-02T22:56:51.960Z,-0.08
2019-01-02T22:59:40.016Z,-0.19
2019-01-02T23:02:14.966Z,-0.33
2019-01-02T23:05:22.022Z,-0.40
2019-01-02T23:08:24.579Z,-0.48
2019-01-02T23:11:31.986Z,-0.54
2019-01-02T23:14:39.030Z,-0.63
2019-01-02T23:17:46.094Z,-0.72
2019-01-02T23:20:53.091Z,-0.76
2019-01-02T23:24:00.149Z,-0.80
2019-01-02T23:27:07.155Z,-0.85
2019-01-02T23:30:14.194Z,-0.88
2019-01-02T23:33:02.108Z,-0.95
2019-01-02T23:35:50.138Z,-0.98
2019-01-02T23:38:38.126Z,-1.02
2019-01-02T23:41:45.198Z,-1.04
2019-01-02T23:44:29.343Z,-1.07
2019-01-02T23:47:17.290Z,-1.09
2019-01-02T23:50:24.338Z,-1.11
2019-01-02T23:53:31.382Z,-1.12
2019-01-02T23:56:19.374Z,-1.12
2019-01-02T23:59:26.423Z,-1.10
